Achupallas, Argentina
Current Conditions -  °F | °C
As of 12:00 PM on Friday 31 Oct 2014 (Local Time) from SAEZ Reporting Station
Light Rain Light Rain  
Wind Chill: 63°   Ceiling: 2800
Heat Index: 63°   Visibility: 4mi
Dew Point: 59°   Wind: 3mph
Humidity: 88%   Direction: 320°NW
Pressure: 30.03"   Gusts: NA
Location:  35.09°S, 59.88°W
Report Text: SAEZ 311500Z 32003KT 310V020 7000 -RA SCT005 BKN028 OVC07017/15 Q1017
Loading
Personal Weather Stations






























Interactive Weather Map
Tropical Storm Tracking
New forecast layout! Learn more

10-Day Weather Forecast

Advertisements
Track Severe Weather on mobile